Forestburg, Canada
Current Conditions -  °F | °C
As of 12:15 PM on Thursday 27 Nov 2014 (Local Time) from CYEG Reporting Station
Light Snow Light Snow  
Wind Chill: -7°   Ceiling: 600
Heat Index: 10°   Visibility: 0.62mi
Dew Point:   Wind: 17mph
Humidity: 79%   Direction: 60°ENE
Pressure: 29.97"   Gusts: 24mph
Location:  52.58°N, 112.07°W
Report Text: CYEG 271915Z 06015G21KT 5/8SM R02/4000FT/N -SN DRSN VV006 M12/M15 A2997 RMK SN8 SLP200
Loading
Personal Weather Stations






























Interactive Weather Map New forecast layout! Learn more

10-Day Weather Forecast

Advertisements
Track Severe Weather on mobile